createdAt,value
2019-04-27T00:01:35.610Z,11.50
2019-04-27T00:04:23.586Z,11.93
2019-04-27T00:06:57.691Z,15.28
2019-04-27T00:09:50.076Z,12.88
2019-04-27T00:12:21.657Z,10.35
2019-04-27T00:14:48.393Z,11.73
2019-04-27T00:17:45.473Z,14.30
2019-04-27T00:20:13.106Z,14.13
2019-04-27T00:22:43.624Z,12.60
2019-04-27T00:25:13.091Z,9.53
2019-04-27T00:27:43.536Z,11.43
2019-04-27T00:30:13.847Z,11.22
2019-04-27T00:32:43.332Z,12.05
2019-04-27T00:35:14.198Z,12.00
2019-04-27T00:37:47.074Z,8.50
2019-04-27T00:40:17.298Z,12.80
2019-04-27T00:42:45.788Z,10.98
2019-04-27T00:45:14.926Z,9.73
2019-04-27T00:47:54.661Z,14.13
2019-04-27T00:50:13.815Z,14.83
2019-04-27T00:52:42.985Z,13.88
2019-04-27T00:55:13.244Z,10.72
2019-04-27T00:57:46.139Z,10.95
2019-04-27T01:00:33.737Z,14.25
2019-04-27T01:03:04.129Z,13.48
2019-04-27T01:05:33.843Z,13.48
2019-04-27T01:08:03.823Z,13.00
2019-04-27T01:10:33.475Z,10.82
2019-04-27T01:13:03.286Z,9.65
2019-04-27T01:15:33.963Z,11.40
2019-04-27T01:18:11.923Z,11.30
2019-04-27T01:20:33.170Z,15.83
2019-04-27T01:23:01.669Z,9.63
2019-04-27T01:25:31.828Z,10.18
2019-04-27T01:28:04.707Z,12.50
2019-04-27T01:30:40.360Z,9.73
2019-04-27T01:33:09.812Z,10.68
2019-04-27T01:35:39.172Z,11.25
2019-04-27T01:38:09.040Z,11.70
2019-04-27T01:40:38.591Z,12.88
2019-04-27T01:43:08.992Z,11.65
2019-04-27T01:45:39.158Z,14.07
2019-04-27T01:48:20.869Z,16.77
2019-04-27T01:50:39.215Z,12.33
2019-04-27T01:53:09.091Z,13.53
2019-04-27T01:55:38.616Z,13.15
2019-04-27T01:58:10.697Z,14.03
2019-04-27T02:00:59.489Z,14.75
2019-04-27T02:03:33.285Z,18.30
2019-04-27T02:08:28.635Z,19.02
2019-04-27T02:10:57.111Z,19.70
2019-04-27T02:13:25.635Z,15.40
2019-04-27T02:15:54.309Z,20.23
2019-04-27T02:18:34.667Z,19.32
2019-04-27T02:20:53.017Z,17.87
2019-04-27T02:23:21.605Z,20.97
2019-04-27T02:25:50.124Z,18.73
2019-04-27T02:28:39.428Z,19.92
2019-04-27T02:31:26.000Z,18.60
2019-04-27T02:33:56.322Z,20.23
2019-04-27T02:36:24.970Z,17.80
2019-04-27T02:38:53.452Z,22.37
2019-04-27T02:41:22.007Z,17.92
2019-04-27T02:44:01.987Z,19.90
2019-04-27T02:46:31.583Z,20.30
2019-04-27T02:49:06.065Z,22.60
2019-04-27T02:51:42.947Z,22.98
2019-04-27T02:54:12.692Z,19.93
2019-04-27T02:56:41.479Z,24.60
2019-04-27T02:59:11.932Z,30.47
2019-04-27T03:01:46.376Z,21.77
2019-04-27T03:04:12.631Z,22.55
2019-04-27T03:06:41.159Z,22.48
2019-04-27T03:09:10.536Z,23.64
2019-04-27T03:11:39.705Z,21.93
2019-04-27T03:14:28.421Z,21.10
2019-04-27T03:16:44.377Z,26.40
2019-04-27T03:19:30.407Z,24.80
2019-04-27T03:22:15.578Z,24.55
2019-04-27T03:25:01.141Z,24.87
2019-04-27T03:27:31.335Z,23.02
2019-04-27T03:30:00.305Z,23.18
2019-04-27T03:32:31.329Z,23.90
2019-04-27T03:35:02.628Z,29.27
2019-04-27T03:37:30.408Z,26.27
2019-04-27T03:40:00.144Z,28.12
2019-04-27T03:42:29.381Z,27.48
2019-04-27T03:45:00.391Z,28.05
2019-04-27T03:47:30.562Z,31.53
2019-04-27T03:50:00.099Z,29.45
2019-04-27T03:52:33.452Z,31.50
2019-04-27T03:55:15.799Z,29.63
2019-04-27T03:57:46.002Z,32.33
2019-04-27T04:00:20.123Z,30.57
2019-04-27T04:02:50.259Z,30.97
2019-04-27T04:05:19.829Z,27.17
2019-04-27T04:07:50.317Z,33.40
2019-04-27T04:10:19.910Z,31.67
2019-04-27T04:13:06.215Z,30.23
2019-04-27T04:15:39.958Z,31.73
2019-04-27T04:18:09.793Z,33.53
2019-04-27T04:20:40.510Z,31.25
2019-04-27T04:23:10.683Z,27.73
2019-04-27T04:25:40.954Z,28.43
2019-04-27T04:28:09.497Z,28.74
2019-04-27T04:30:40.285Z,25.32
2019-04-27T04:33:10.178Z,31.20
2019-04-27T04:35:39.811Z,30.20
2019-04-27T04:38:10.452Z,28.07
2019-04-27T04:40:40.505Z,27.63
2019-04-27T04:43:11.110Z,31.73
2019-04-27T04:45:59.648Z,35.52
2019-04-27T04:48:30.223Z,36.30
2019-04-27T04:50:59.947Z,65.20
2019-04-27T04:53:29.410Z,60.95
2019-04-27T04:56:00.053Z,54.08
2019-04-27T04:58:29.398Z,31.10
2019-04-27T05:00:59.561Z,25.90
2019-04-27T05:03:28.708Z,30.00
2019-04-27T05:05:58.778Z,26.42
2019-04-27T05:08:29.114Z,54.53
2019-04-27T05:10:59.523Z,61.05
2019-04-27T05:13:29.310Z,78.72
2019-04-27T05:15:58.852Z,56.50
2019-04-27T05:18:29.136Z,43.83
2019-04-27T05:20:59.372Z,48.17
2019-04-27T05:23:28.762Z,67.95
2019-04-27T05:25:59.184Z,76.15
2019-04-27T05:28:27.562Z,67.05
2019-04-27T05:30:56.076Z,70.50
2019-04-27T05:33:24.570Z,94.92
2019-04-27T05:35:53.096Z,93.27
2019-04-27T05:38:21.625Z,82.35
2019-04-27T05:40:50.180Z,66.42
2019-04-27T05:43:20.518Z,42.15
2019-04-27T05:46:21.087Z,102.93
2019-04-27T05:48:49.607Z,49.95
2019-04-27T05:51:19.743Z,45.57
2019-04-27T05:53:49.531Z,40.38
2019-04-27T05:56:19.319Z,47.10
2019-04-27T05:58:49.117Z,83.97
2019-04-27T06:01:19.642Z,105.20
2019-04-27T06:03:49.822Z,81.05
2019-04-27T06:06:19.731Z,81.15
2019-04-27T06:08:49.469Z,46.35
2019-04-27T06:11:19.649Z,58.10
2019-04-27T06:13:49.230Z,47.80
2019-04-27T06:16:19.476Z,45.83
2019-04-27T06:18:49.314Z,35.40
2019-04-27T06:21:19.573Z,52.23
2019-04-27T06:23:48.783Z,39.33
2019-04-27T06:26:17.427Z,36.23
2019-04-27T06:28:45.960Z,45.50
2019-04-27T06:31:14.518Z,32.38
2019-04-27T06:33:43.066Z,33.20
2019-04-27T06:36:11.588Z,28.23
2019-04-27T06:38:40.158Z,24.47
2019-04-27T06:41:09.999Z,39.90
2019-04-27T06:43:40.450Z,52.60
2019-04-27T06:46:09.169Z,26.93
2019-04-27T06:48:39.356Z,47.30
2019-04-27T06:51:09.697Z,32.57
2019-04-27T06:53:39.459Z,251.42
2019-04-27T06:56:08.965Z,39.70
2019-04-27T06:58:40.500Z,117.90
2019-04-27T07:01:09.463Z,55.73
2019-04-27T07:03:39.502Z,41.63
2019-04-27T07:06:08.824Z,43.98
2019-04-27T07:08:39.930Z,156.67
2019-04-27T07:11:08.995Z,57.10
2019-04-27T07:13:39.067Z,166.37
2019-04-27T07:16:09.502Z,16.87
2019-04-27T07:18:39.662Z,114.67
2019-04-27T07:21:16.912Z,165.82
2019-04-27T07:23:40.226Z,111.25
2019-04-27T07:26:09.387Z,41.18
2019-04-27T07:28:39.256Z,31.83
2019-04-27T07:31:09.652Z,49.55
2019-04-27T07:33:39.547Z,36.30
2019-04-27T07:36:08.953Z,35.43
2019-04-27T07:38:39.387Z,28.40
2019-04-27T07:41:09.565Z,64.12
2019-04-27T07:43:55.046Z,34.93
2019-04-27T07:46:23.541Z,25.53
2019-04-27T07:48:52.952Z,19.92
2019-04-27T07:51:31.591Z,39.13
2019-04-27T07:53:53.702Z,38.98
2019-04-27T07:56:22.223Z,25.45
2019-04-27T07:58:50.720Z,36.20
2019-04-27T08:01:19.351Z,53.47
2019-04-27T08:03:49.038Z,37.15
2019-04-27T08:06:18.983Z,81.35
2019-04-27T08:08:49.226Z,51.50
2019-04-27T08:11:19.257Z,36.73
2019-04-27T08:13:49.017Z,40.23
2019-04-27T08:16:18.305Z,76.45
2019-04-27T08:18:49.349Z,96.78
2019-04-27T08:21:18.869Z,75.13
2019-04-27T08:23:49.001Z,35.78
2019-04-27T08:26:19.226Z,61.77
2019-04-27T08:28:51.840Z,27.90
2019-04-27T08:31:21.961Z,44.65
2019-04-27T08:33:50.455Z,28.10
2019-04-27T08:36:19.139Z,47.80
2019-04-27T08:38:48.932Z,49.45
2019-04-27T08:41:17.435Z,71.77
2019-04-27T08:43:45.961Z,79.33
2019-04-27T08:46:14.480Z,37.98
2019-04-27T08:48:42.953Z,60.98
2019-04-27T08:51:11.429Z,42.30
2019-04-27T08:53:39.961Z,104.27
2019-04-27T08:56:09.372Z,54.35
2019-04-27T08:58:38.603Z,34.08
2019-04-27T09:01:10.041Z,48.30
2019-04-27T09:03:39.458Z,43.05
2019-04-27T09:08:59.281Z,42.50
2019-04-27T09:11:29.578Z,49.50
2019-04-27T09:14:02.839Z,57.45
2019-04-27T09:16:32.986Z,48.98
2019-04-27T09:19:05.866Z,34.70
2019-04-27T09:21:52.275Z,38.85
2019-04-27T09:24:20.822Z,67.12
2019-04-27T09:26:49.324Z,35.92
2019-04-27T09:29:17.798Z,41.50
2019-04-27T09:31:46.301Z,47.40
2019-04-27T09:34:14.823Z,46.20
2019-04-27T09:36:46.268Z,108.22
2019-04-27T09:39:16.367Z,25.85
2019-04-27T09:41:45.974Z,32.70
2019-04-27T09:44:16.054Z,31.97
2019-04-27T09:46:44.646Z,20.62
2019-04-27T09:49:13.139Z,28.92
2019-04-27T09:51:41.658Z,23.75
2019-04-27T09:54:10.151Z,25.15
2019-04-27T09:56:38.662Z,16.42
2019-04-27T09:59:07.226Z,20.55
2019-04-27T10:01:36.140Z,20.68
2019-04-27T10:04:05.220Z,21.48
2019-04-27T10:06:33.814Z,22.60
2019-04-27T10:09:02.395Z,13.72
2019-04-27T10:11:31.015Z,14.70
2019-04-27T10:13:59.553Z,77.40
2019-04-27T10:16:28.051Z,18.52
2019-04-27T10:18:56.580Z,16.55
2019-04-27T10:21:26.418Z,16.25
2019-04-27T10:23:56.664Z,17.45
2019-04-27T10:26:25.952Z,26.77
2019-04-27T10:28:55.985Z,22.00
2019-04-27T10:31:24.634Z,25.80
2019-04-27T10:33:53.120Z,27.75
2019-04-27T10:36:23.322Z,17.48
2019-04-27T10:38:55.522Z,17.92
2019-04-27T10:41:25.898Z,23.55
2019-04-27T10:43:54.480Z,23.73
2019-04-27T10:46:22.999Z,25.57
2019-04-27T10:48:51.573Z,26.48
2019-04-27T10:51:20.070Z,18.75
2019-04-27T10:53:48.589Z,23.15
2019-04-27T10:56:17.170Z,17.67
2019-04-27T10:58:45.773Z,19.25
2019-04-27T11:01:15.634Z,26.70
2019-04-27T11:03:51.726Z,21.12
2019-04-27T11:06:34.087Z,21.27
2019-04-27T11:09:02.806Z,27.98
2019-04-27T11:11:32.821Z,18.12
2019-04-27T11:14:01.316Z,15.93
2019-04-27T11:16:29.972Z,18.73
2019-04-27T11:18:58.847Z,23.57
2019-04-27T11:21:27.457Z,26.25
2019-04-27T11:23:56.052Z,24.67
2019-04-27T11:26:26.199Z,20.72
2019-04-27T11:28:55.112Z,25.70
2019-04-27T11:31:23.740Z,23.75
2019-04-27T11:33:53.104Z,23.25
2019-04-27T11:36:23.250Z,20.75
2019-04-27T11:38:53.412Z,23.92
2019-04-27T11:41:21.987Z,23.73
2019-04-27T11:43:50.566Z,26.42
2019-04-27T11:46:19.060Z,22.33
2019-04-27T11:48:47.656Z,29.55
2019-04-27T11:51:17.440Z,20.75
2019-04-27T11:53:46.811Z,46.68
2019-04-27T11:56:15.715Z,29.95
2019-04-27T11:58:47.307Z,232.05
2019-04-27T12:01:16.094Z,481.30
2019-04-27T12:03:44.676Z,75.00
2019-04-27T12:06:13.355Z,22.52
2019-04-27T12:08:41.848Z,25.40
2019-04-27T12:11:10.421Z,43.07
2019-04-27T12:13:38.944Z,16.73
2019-04-27T12:16:07.473Z,15.83
2019-04-27T12:18:36.128Z,16.52
2019-04-27T12:21:06.121Z,14.47
2019-04-27T12:23:39.472Z,19.45
2019-04-27T12:26:05.836Z,17.03
2019-04-27T12:28:36.038Z,15.32
2019-04-27T12:31:08.784Z,169.95
2019-04-27T12:33:37.290Z,533.30
2019-04-27T12:36:06.785Z,260.13
2019-04-27T12:38:36.534Z,701.00
2019-04-27T12:41:06.804Z,64.37
2019-04-27T12:43:35.618Z,49.05
2019-04-27T12:46:06.018Z,33.28
2019-04-27T12:48:37.193Z,43.60
2019-04-27T12:51:05.240Z,48.13
2019-04-27T12:53:50.686Z,172.02
2019-04-27T12:56:29.806Z,26.68
2019-04-27T12:58:59.941Z,35.92
2019-04-27T13:01:29.517Z,24.35
2019-04-27T13:03:59.247Z,32.42
2019-04-27T13:06:27.998Z,38.00
2019-04-27T13:08:56.513Z,30.40
2019-04-27T13:11:26.795Z,41.03
2019-04-27T13:13:57.269Z,39.55
2019-04-27T13:16:26.880Z,21.17
2019-04-27T13:18:57.480Z,17.73
2019-04-27T13:21:26.366Z,32.53
2019-04-27T13:24:03.673Z,46.05
2019-04-27T13:26:25.746Z,23.00
2019-04-27T13:28:54.803Z,68.02
2019-04-27T13:31:23.325Z,107.65
2019-04-27T13:33:51.840Z,48.63
2019-04-27T13:36:20.392Z,39.48
2019-04-27T13:38:48.893Z,36.70
2019-04-27T13:41:27.859Z,40.25
2019-04-27T13:43:47.611Z,21.00
2019-04-27T13:46:17.783Z,20.53
2019-04-27T13:49:02.665Z,27.00
2019-04-27T13:51:35.567Z,30.55
2019-04-27T13:54:17.350Z,38.75
2019-04-27T13:56:35.612Z,33.30
2019-04-27T13:59:07.531Z,31.55
2019-04-27T14:01:35.589Z,33.00
2019-04-27T14:04:06.861Z,56.42
2019-04-27T14:06:35.198Z,58.83
2019-04-27T14:09:05.225Z,64.75
2019-04-27T14:11:33.717Z,112.28
2019-04-27T14:14:02.201Z,45.98
2019-04-27T14:19:10.982Z,36.53
2019-04-27T14:21:39.639Z,39.10
2019-04-27T14:24:08.127Z,47.98
2019-04-27T14:26:38.460Z,50.45
2019-04-27T14:29:08.232Z,72.27
2019-04-27T14:31:37.255Z,67.30
2019-04-27T14:34:05.787Z,44.13
2019-04-27T14:36:34.983Z,74.62
2019-04-27T14:39:04.902Z,41.88
2019-04-27T14:41:33.416Z,54.33
2019-04-27T14:44:08.120Z,45.90
2019-04-27T14:46:32.224Z,36.40
2019-04-27T14:49:00.715Z,72.85
2019-04-27T14:51:29.226Z,40.65
2019-04-27T14:53:58.885Z,43.13
2019-04-27T14:56:28.225Z,30.65
2019-04-27T14:58:58.661Z,37.48
2019-04-27T15:01:27.009Z,48.37
2019-04-27T15:03:55.533Z,68.83
2019-04-27T15:06:25.533Z,85.35
2019-04-27T15:08:55.900Z,124.47
2019-04-27T15:11:24.564Z,127.65
2019-04-27T15:13:56.827Z,77.45
2019-04-27T15:16:24.809Z,82.90
2019-04-27T15:18:55.737Z,65.15
2019-04-27T15:21:25.617Z,100.70
2019-04-27T15:23:54.778Z,66.40
2019-04-27T15:26:23.261Z,102.70
2019-04-27T15:28:53.412Z,112.87
2019-04-27T15:31:27.012Z,53.13
2019-04-27T15:34:01.299Z,51.35
2019-04-27T15:36:34.209Z,54.27
2019-04-27T15:39:15.938Z,63.23
2019-04-27T15:41:51.632Z,146.98
2019-04-27T15:44:20.156Z,115.05
2019-04-27T15:46:48.653Z,115.60
2019-04-27T15:49:17.906Z,139.03
2019-04-27T15:51:46.537Z,160.48
2019-04-27T15:54:15.066Z,177.77
2019-04-27T15:56:43.704Z,158.72
2019-04-27T15:59:12.229Z,210.17
2019-04-27T16:01:40.734Z,157.70
2019-04-27T16:04:11.191Z,176.47
2019-04-27T16:06:42.847Z,206.02
2019-04-27T16:09:11.550Z,180.42
2019-04-27T16:11:40.058Z,155.55
2019-04-27T16:14:08.623Z,186.03
2019-04-27T16:16:38.198Z,191.55
2019-04-27T16:19:10.209Z,135.35
2019-04-27T16:21:41.585Z,104.92
2019-04-27T16:24:08.492Z,142.28
2019-04-27T16:26:38.687Z,108.22
2019-04-27T16:29:08.285Z,155.27
2019-04-27T16:31:38.490Z,143.68
2019-04-27T16:34:08.331Z,156.90
2019-04-27T16:36:43.454Z,111.47
2019-04-27T16:39:09.926Z,95.80
2019-04-27T16:41:41.778Z,154.50
2019-04-27T16:44:10.905Z,193.57
2019-04-27T16:46:42.815Z,131.63
2019-04-27T16:49:13.825Z,142.90
2019-04-27T16:51:40.360Z,170.30
2019-04-27T16:54:13.006Z,119.18
2019-04-27T16:56:39.252Z,131.82
2019-04-27T16:59:33.758Z,109.00
2019-04-27T17:01:40.074Z,131.23
2019-04-27T17:04:11.309Z,125.60
2019-04-27T17:06:45.666Z,152.50
2019-04-27T17:09:11.378Z,173.57
2019-04-27T17:11:43.848Z,150.62
2019-04-27T17:14:11.184Z,130.30
2019-04-27T17:16:41.309Z,128.32
2019-04-27T17:19:14.227Z,98.15
2019-04-27T17:21:42.715Z,109.20
2019-04-27T17:24:11.222Z,80.90
2019-04-27T17:26:43.556Z,65.25
2019-04-27T17:29:16.807Z,62.75
2019-04-27T17:31:43.488Z,102.62
2019-04-27T17:34:12.912Z,108.78
2019-04-27T17:36:42.179Z,182.02
2019-04-27T17:39:11.308Z,207.80
2019-04-27T17:41:42.077Z,186.85
2019-04-27T17:44:12.741Z,147.70
2019-04-27T17:46:42.651Z,149.70
2019-04-27T17:49:11.110Z,163.75
2019-04-27T17:51:44.139Z,191.18
2019-04-27T17:54:11.482Z,140.65
2019-04-27T17:56:48.411Z,419.17
2019-04-27T17:59:16.732Z,344.02
2019-04-27T18:01:40.496Z,303.98
2019-04-27T18:04:10.718Z,311.23
2019-04-27T18:06:39.294Z,255.90
2019-04-27T18:09:09.903Z,211.47
2019-04-27T18:11:38.620Z,266.25
2019-04-27T18:14:09.829Z,285.63
2019-04-27T18:16:38.064Z,241.33
2019-04-27T18:19:11.999Z,257.60
2019-04-27T18:21:42.219Z,271.80
2019-04-27T18:24:12.354Z,312.65
2019-04-27T18:26:56.377Z,266.40
2019-04-27T18:29:22.846Z,299.55
2019-04-27T18:31:54.620Z,251.45
2019-04-27T18:34:22.094Z,167.60
2019-04-27T18:36:50.672Z,149.02
2019-04-27T18:39:19.253Z,153.05
2019-04-27T18:41:50.694Z,155.18
2019-04-27T18:44:23.578Z,147.00
2019-04-27T18:49:30.251Z,166.68
2019-04-27T18:52:04.498Z,153.05
2019-04-27T18:54:33.044Z,173.45
2019-04-27T18:57:04.153Z,144.00
2019-04-27T18:59:30.916Z,126.17
2019-04-27T19:01:59.415Z,115.75
2019-04-27T19:04:28.199Z,103.75
2019-04-27T19:06:59.839Z,105.85
2019-04-27T19:09:27.062Z,107.45
2019-04-27T19:11:56.669Z,109.07
2019-04-27T19:14:25.349Z,104.63
2019-04-27T19:16:58.668Z,126.10
2019-04-27T19:19:28.072Z,136.07
2019-04-27T19:21:58.739Z,131.30
2019-04-27T19:24:28.158Z,159.40
2019-04-27T19:26:58.807Z,170.12
2019-04-27T19:29:29.300Z,208.05
2019-04-27T19:32:02.181Z,175.47
2019-04-27T19:34:30.750Z,180.03
2019-04-27T19:36:59.376Z,162.30
2019-04-27T19:39:28.559Z,154.90
2019-04-27T19:42:01.435Z,134.55
2019-04-27T19:44:29.153Z,147.53
2019-04-27T19:46:59.991Z,138.53
2019-04-27T19:49:31.224Z,145.85
2019-04-27T19:51:58.928Z,159.40
2019-04-27T19:54:28.249Z,164.75
2019-04-27T19:56:59.537Z,159.15
2019-04-27T19:59:29.845Z,163.80
2019-04-27T20:02:00.085Z,153.95
2019-04-27T20:04:33.209Z,156.18
2019-04-27T20:07:01.777Z,164.35
2019-04-27T20:09:34.767Z,167.55
2019-04-27T20:12:05.059Z,153.78
2019-04-27T20:14:36.028Z,136.07
2019-04-27T20:17:04.919Z,139.67
2019-04-27T20:19:33.407Z,135.45
2019-04-27T20:22:01.918Z,156.28
2019-04-27T20:24:31.407Z,155.03
2019-04-27T20:27:02.642Z,182.47
2019-04-27T20:29:31.703Z,162.62
2019-04-27T20:32:01.210Z,178.35
2019-04-27T20:34:31.095Z,182.67
2019-04-27T20:37:01.637Z,139.45
2019-04-27T20:39:30.314Z,144.67
2019-04-27T20:41:58.897Z,142.45
2019-04-27T20:44:27.391Z,127.42
2019-04-27T20:46:55.985Z,121.67
2019-04-27T20:49:24.588Z,120.95
2019-04-27T20:52:01.044Z,122.05
2019-04-27T20:54:30.595Z,111.92
2019-04-27T20:57:01.529Z,112.07
2019-04-27T20:59:30.203Z,118.35
2019-04-27T21:02:00.355Z,117.62
2019-04-27T21:04:36.599Z,120.17
2019-04-27T21:07:06.825Z,123.00
2019-04-27T21:09:35.319Z,135.65
2019-04-27T21:12:04.842Z,143.95
2019-04-27T21:14:33.334Z,96.32
2019-04-27T21:17:01.855Z,101.93
2019-04-27T21:19:31.230Z,91.82
2019-04-27T21:22:01.267Z,108.07
2019-04-27T21:24:31.168Z,119.82
2019-04-27T21:26:59.688Z,125.87
2019-04-27T21:29:28.247Z,379.52
2019-04-27T21:31:56.754Z,231.63
2019-04-27T21:34:25.285Z,234.12
2019-04-27T21:36:53.788Z,162.83
2019-04-27T21:39:22.316Z,266.27
2019-04-27T21:41:51.747Z,181.70
2019-04-27T21:44:21.782Z,116.45
2019-04-27T21:46:51.906Z,128.20
2019-04-27T21:49:22.229Z,80.22
2019-04-27T21:52:04.707Z,87.30
2019-04-27T21:54:34.946Z,228.07
2019-04-27T21:57:03.431Z,77.58
2019-04-27T21:59:32.817Z,74.22
2019-04-27T22:02:03.016Z,95.77
2019-04-27T22:04:31.677Z,112.10
2019-04-27T22:07:01.398Z,126.50
2019-04-27T22:09:29.980Z,74.92
2019-04-27T22:11:58.553Z,64.65
2019-04-27T22:14:27.113Z,110.28
2019-04-27T22:16:55.615Z,91.53
2019-04-27T22:19:24.719Z,129.25
2019-04-27T22:21:53.216Z,63.90
2019-04-27T22:24:23.380Z,68.67
2019-04-27T22:26:51.967Z,87.33
2019-04-27T22:29:22.192Z,73.57
2019-04-27T22:31:51.581Z,69.20
2019-04-27T22:34:21.073Z,73.92
2019-04-27T22:36:49.621Z,96.72
2019-04-27T22:39:20.879Z,54.80
2019-04-27T22:42:01.717Z,103.40
2019-04-27T22:44:41.054Z,118.40
2019-04-27T22:47:11.430Z,98.78
2019-04-27T22:49:39.857Z,66.97
2019-04-27T22:52:08.379Z,59.83
2019-04-27T22:54:36.873Z,57.33
2019-04-27T22:57:07.101Z,54.95
2019-04-27T22:59:41.439Z,43.38
2019-04-27T23:02:23.982Z,47.62
2019-04-27T23:04:56.946Z,51.25
2019-04-27T23:07:25.548Z,39.75
2019-04-27T23:09:54.050Z,46.25
2019-04-27T23:12:23.063Z,52.35
2019-04-27T23:14:51.708Z,49.95
2019-04-27T23:17:41.529Z,67.67
2019-04-27T23:20:11.570Z,127.82
2019-04-27T23:22:40.195Z,85.92
2019-04-27T23:25:08.744Z,95.32
2019-04-27T23:27:37.247Z,62.75
2019-04-27T23:30:07.619Z,71.90
2019-04-27T23:32:43.465Z,87.30
2019-04-27T23:35:13.875Z,104.10
2019-04-27T23:37:42.387Z,72.08
2019-04-27T23:40:12.092Z,67.90
2019-04-27T23:42:41.623Z,73.02
2019-04-27T23:45:10.882Z,64.60
2019-04-27T23:47:39.360Z,53.00
2019-04-27T23:50:08.426Z,94.72
2019-04-27T23:52:54.590Z,51.50
2019-04-27T23:55:24.739Z,63.47
2019-04-27T23:57:53.235Z,59.70
